Time;durP1;ratioP1;P1;durP2;ratioP2;P2;SDS_P1;SDS_P2;PMS_P1;PMS_P2;Temp;Humidity;BMP_temperature;BMP_pressure;BME280_temperature;BME280_humidity;BME280_pressure;Samples;Min_cycle;Max_cycle;Signal;HPM_P1;HPM_P2
2023/03/04 06:53:19;;;;;;;68.73;12.70;;;-2.50;99.90;;;;;;5137766;27;20278;-79
2023/03/04 06:59:45;;;;;;;72.30;18.73;;;;;;;;;;5137931;27;20278;-79
2023/03/04 07:40:20;;;;;;;34.20;18.40;;;-1.20;99.90;;;;;;5139323;27;20267;-79
2023/03/04 07:44:35;;;;;;;36.93;21.63;;;-1.10;99.90;;;;;;5136898;27;20275;-80
2023/03/04 07:48:36;;;;;;;48.63;21.43;;;-0.90;99.90;;;;;;5135590;27;20772;-80
2023/03/04 07:52:45;;;;;;;63.93;28.73;;;-0.70;99.90;;;;;;5074094;28;20518;-78
2023/03/04 07:55:12;;;;;;;43.27;23.37;;;-0.60;99.90;;;;;;5073406;28;20411;-79
2023/03/04 07:57:42;;;;;;;45.47;20.20;;;-0.60;99.90;;;;;;5081383;28;20855;-80
2023/03/04 08:00:09;;;;;;;52.00;21.07;;;-0.50;99.90;;;;;;5076699;28;20404;-80
2023/03/04 08:02:35;;;;;;;46.97;22.13;;;-0.50;99.90;;;;;;5077256;28;20408;-80
2023/03/04 08:05:01;;;;;;;42.93;22.27;;;-0.40;99.90;;;;;;5076028;28;20414;-80
2023/03/04 08:07:26;;;;;;;57.67;23.60;;;-0.40;99.90;;;;;;5075002;28;20276;-80
2023/03/04 08:09:52;;;;;;;64.57;24.33;;;-0.30;99.90;;;;;;5074021;28;20177;-80
2023/03/04 08:12:18;;;;;;;42.77;23.30;;;-0.30;99.90;;;;;;5082748;28;20217;-80
2023/03/04 08:14:44;;;;;;;47.10;24.20;;;-0.10;99.90;;;;;;5083714;28;20533;-80
2023/03/04 08:17:09;;;;;;;46.50;24.33;;;-0.10;99.90;;;;;;5071238;28;20200;-80
2023/03/04 08:19:35;;;;;;;37.17;22.57;;;0.10;99.90;;;;;;5071707;28;20177;-80
2023/03/04 08:22:02;;;;;;;51.13;24.07;;;0.20;99.90;;;;;;5076105;28;20207;-81
2023/03/04 08:24:27;;;;;;;57.63;25.83;;;0.10;99.90;;;;;;5076958;28;20283;-81
2023/03/04 08:26:53;;;;;;;48.27;26.07;;;0.20;99.90;;;;;;5075737;28;20455;-81
2023/03/04 08:29:22;;;;;;;42.53;24.93;;;0.30;99.90;;;;;;5076745;28;20173;-81
2023/03/04 08:31:48;;;;;;;48.40;26.27;;;0.40;99.90;;;;;;5075144;28;20224;-81
2023/03/04 08:34:14;;;;;;;45.53;25.13;;;0.50;99.90;;;;;;5077001;28;20627;-81
2023/03/04 08:36:43;;;;;;;45.33;26.13;;;0.50;99.90;;;;;;5075538;28;20419;-81
2023/03/04 08:39:12;;;;;;;49.87;27.37;;;0.60;99.90;;;;;;5076154;28;20173;-81
2023/03/04 08:41:38;;;;;;;49.70;26.37;;;0.70;99.90;;;;;;5075022;28;20268;-82
2023/03/04 08:44:04;;;;;;;50.80;27.63;;;0.70;99.90;;;;;;5076854;28;20206;-81
2023/03/04 08:46:30;;;;;;;44.80;26.70;;;0.70;99.90;;;;;;5075139;28;20185;-81
2023/03/04 08:48:56;;;;;;;48.23;26.50;;;0.70;99.90;;;;;;5074588;28;20209;-81
2023/03/04 08:51:22;;;;;;;49.10;27.77;;;0.80;99.90;;;;;;5073052;28;20220;-81
2023/03/04 08:53:48;;;;;;;48.07;28.73;;;0.90;99.90;;;;;;5074054;28;20686;-81
2023/03/04 08:56:14;;;;;;;46.80;27.37;;;1.10;99.90;;;;;;5073110;28;20177;-81
2023/03/04 08:58:40;;;;;;;50.57;28.40;;;1.20;99.90;;;;;;5073300;28;20194;-80
2023/03/04 09:01:11;;;;;;;46.00;25.77;;;1.30;99.90;;;;;;5075187;28;20724;-81
2023/03/04 09:03:37;;;;;;;47.73;27.87;;;1.30;99.90;;;;;;5063557;28;20275;-81
2023/03/04 09:06:04;;;;;;;45.27;26.37;;;1.30;99.90;;;;;;5061239;28;20640;-81
2023/03/04 09:08:29;;;;;;;48.37;27.40;;;1.30;99.90;;;;;;5060024;28;20746;-81
2023/03/04 09:10:55;;;;;;;47.27;27.73;;;1.20;99.90;;;;;;5059811;28;20229;-81
2023/03/04 09:13:25;;;;;;;46.53;26.57;;;1.30;99.90;;;;;;5061380;28;20180;-81
2023/03/04 09:15:51;;;;;;;48.00;27.80;;;1.40;99.90;;;;;;5060356;28;20174;-81
2023/03/04 09:18:19;;;;;;;45.80;26.13;;;1.50;99.90;;;;;;5059312;28;20566;-81
2023/03/04 09:20:44;;;;;;;44.53;26.43;;;1.60;99.90;;;;;;5061098;28;20519;-81
2023/03/04 09:23:11;;;;;;;51.53;29.83;;;1.60;99.90;;;;;;5060402;28;20220;-80
2023/03/04 09:25:38;;;;;;;49.87;28.67;;;1.70;99.90;;;;;;5061127;28;20696;-81
2023/03/04 09:28:05;;;;;;;55.00;31.07;;;2.00;99.90;;;;;;5060314;28;20225;-81
2023/03/04 09:30:31;;;;;;;53.03;32.30;;;2.30;99.90;;;;;;5065624;28;20202;-81
2023/03/04 09:32:56;;;;;;;47.90;30.30;;;2.50;99.90;;;;;;5058215;28;20179;-81
2023/03/04 09:35:22;;;;;;;46.53;28.13;;;2.60;99.90;;;;;;5058960;28;20181;-81
2023/03/04 09:37:49;;;;;;;48.57;29.80;;;2.70;99.90;;;;;;5058017;28;20221;-81
2023/03/04 09:40:29;;;;;;;42.93;27.77;;;2.80;99.90;;;;;;5059577;28;20225;-81
2023/03/04 09:43:04;;;;;;;49.97;30.03;;;2.80;99.90;;;;;;5058407;28;20175;-81
2023/03/04 09:45:54;;;;;;;43.60;27.73;;;2.80;99.90;;;;;;5058261;28;20174;-81
2023/03/04 09:48:23;;;;;;;52.27;29.87;;;2.90;99.90;;;;;;5058472;28;20674;-81
2023/03/04 09:51:20;;;;;;;52.23;28.67;;;3.10;99.90;;;;;;5057725;28;20222;-81
2023/03/04 09:53:54;;;;;;;54.20;30.77;;;3.20;99.90;;;;;;5057746;28;20175;-81
2023/03/04 09:56:21;;;;;;;50.97;29.63;;;3.30;99.90;;;;;;5059200;28;20155;-81
2023/03/04 09:59:15;;;;;;;50.20;30.07;;;3.40;99.90;;;;;;5057414;28;20229;-81
2023/03/04 10:01:55;;;;;;;53.27;31.40;;;3.70;99.90;;;;;;5059212;28;20251;-82
2023/03/04 10:04:39;;;;;;;45.43;28.07;;;3.90;99.90;;;;;;5059343;28;20180;-81
2023/03/04 10:07:16;;;;;;;46.77;28.87;;;4.20;99.90;;;;;;5058983;28;20196;-82
2023/03/04 10:09:56;;;;;;;47.83;27.47;;;4.80;99.90;;;;;;5058820;28;20248;-82
2023/03/04 10:12:24;;;;;;;43.37;28.00;;;5.30;99.90;;;;;;5057903;28;20668;-82
2023/03/04 10:15:22;;;;;;;45.03;28.27;;;5.30;99.90;;;;;;5057836;28;20227;-82
2023/03/04 10:17:52;;;;;;;43.03;27.13;;;5.20;99.90;;;;;;5054126;28;20201;-82
2023/03/04 10:20:25;;;;;;;49.40;29.07;;;4.90;99.90;;;;;;5057543;28;20640;-82
2023/03/04 10:22:57;;;;;;;46.30;29.17;;;4.70;99.90;;;;;;5057122;28;20188;-82
2023/03/04 10:25:29;;;;;;;48.03;29.23;;;4.60;99.90;;;;;;5057072;28;20172;-82
2023/03/04 10:27:56;;;;;;;53.73;32.63;;;4.70;99.90;;;;;;5057518;28;20253;-83
2023/03/04 10:30:43;;;;;;;52.23;32.07;;;4.70;99.90;;;;;;5056625;28;20626;-82
2023/03/04 10:33:18;;;;;;;44.70;28.27;;;4.70;99.90;;;;;;5058530;28;20246;-82
2023/03/04 10:36:05;;;;;;;50.77;30.00;;;4.80;99.90;;;;;;5058257;28;20620;-82
2023/03/04 10:38:38;;;;;;;54.70;29.67;;;5.00;99.90;;;;;;5058318;28;20209;-82
2023/03/04 10:41:21;;;;;;;48.10;31.13;;;5.10;99.90;;;;;;5058347;28;20592;-82
2023/03/04 10:44:02;;;;;;;51.57;31.80;;;4.90;99.90;;;;;;5056003;28;20177;-81
2023/03/04 10:46:28;;;;;;;53.27;31.43;;;4.80;99.90;;;;;;5057390;28;20162;-82
2023/03/04 10:48:54;;;;;;;52.30;31.93;;;4.80;99.90;;;;;;5057744;28;20190;-82
2023/03/04 10:51:23;;;;;;;51.13;32.87;;;4.70;99.90;;;;;;5056412;28;20213;-82
2023/03/04 10:53:58;;;;;;;55.27;33.40;;;4.70;99.90;;;;;;5058721;28;20169;-80
2023/03/04 10:56:44;;;;;;;57.30;33.50;;;4.80;99.90;;;;;;5057006;28;20212;-82
2023/03/04 10:59:32;;;;;;;56.37;33.30;;;4.70;99.90;;;;;;5057323;28;20181;-82
2023/03/04 11:02:00;;;;;;;55.17;32.90;;;4.90;99.90;;;;;;5064201;28;20266;-82
2023/03/04 11:04:31;;;;;;;55.77;33.07;;;5.10;99.90;;;;;;5056324;28;20174;-82
2023/03/04 11:06:57;;;;;;;60.07;35.40;;;5.10;99.90;;;;;;5054519;28;20170;-82
2023/03/04 11:09:26;;;;;;;55.57;34.17;;;5.20;99.90;;;;;;5054315;28;20182;-83
2023/03/04 11:11:54;;;;;;;53.73;33.17;;;5.10;99.90;;;;;;5057360;28;20202;-83
2023/03/04 11:14:20;;;;;;;63.40;37.30;;;5.10;99.90;;;;;;5057733;28;20173;-82
2023/03/04 11:17:00;;;;;;;59.97;36.87;;;5.30;99.90;;;;;;5058299;28;20172;-82
2023/03/04 11:19:37;;;;;;;59.37;36.73;;;5.50;99.90;;;;;;5058297;28;20276;-82
2023/03/04 11:22:04;;;;;;;57.13;36.40;;;5.50;99.90;;;;;;5057093;28;20245;-82
2023/03/04 11:24:33;;;;;;;55.80;34.90;;;5.60;99.90;;;;;;5057468;28;20189;-82
2023/03/04 11:27:05;;;;;;;58.50;36.60;;;5.70;99.90;;;;;;5057332;28;20193;-82
2023/03/04 11:29:39;;;;;;;58.93;37.47;;;5.80;99.90;;;;;;5056650;28;20178;-82
2023/03/04 11:32:25;;;;;;;58.50;35.63;;;5.90;99.90;;;;;;5057625;28;20192;-82
2023/03/04 11:34:57;;;;;;;55.67;37.13;;;6.00;99.90;;;;;;5055456;28;20264;-82
2023/03/04 11:37:52;;;;;;;60.43;37.73;;;6.20;99.90;;;;;;5057177;28;20200;-82
2023/03/04 11:40:39;;;;;;;60.40;35.33;;;6.20;99.90;;;;;;5056106;28;20178;-83
2023/03/04 11:43:26;;;;;;;56.30;35.97;;;6.40;99.90;;;;;;5042372;28;20185;-81
2023/03/04 11:46:19;;;;;;;58.53;36.40;;;6.50;99.90;;;;;;5037167;28;20261;-82
2023/03/04 11:48:56;;;;;;;55.17;35.50;;;6.70;99.90;;;;;;5037413;28;20240;-82
2023/03/04 11:51:34;;;;;;;57.30;35.23;;;6.80;99.90;;;;;;5037109;28;20201;-82
2023/03/04 11:54:16;;;;;;;53.00;35.33;;;6.80;99.90;;;;;;5035847;28;20241;-82
2023/03/04 11:56:50;;;;;;;53.00;32.83;;;7.10;99.90;;;;;;5036100;28;20181;-82
2023/03/04 11:59:39;;;;;;;58.10;32.87;;;7.20;99.90;;;;;;5036935;28;20170;-83
2023/03/04 12:02:16;;;;;;;46.03;30.13;;;7.40;99.90;;;;;;5035260;28;20174;-82
2023/03/04 12:04:53;;;;;;;48.67;30.70;;;7.40;99.90;;;;;;5036856;28;20190;-81
2023/03/04 12:07:40;;;;;;;53.13;32.47;;;7.60;99.90;;;;;;5034935;28;20229;-83
2023/03/04 12:10:38;;;;;;;50.40;29.80;;;7.70;99.90;;;;;;5036492;28;20174;-82
2023/03/04 12:13:34;;;;;;;45.87;29.23;;;7.90;99.90;;;;;;5035921;28;20188;-82
2023/03/04 12:15:59;;;;;;;45.10;30.77;;;7.80;99.90;;;;;;5035574;28;20198;-82
2023/03/04 12:18:37;;;;;;;50.83;30.83;;;7.50;99.90;;;;;;5036423;28;20194;-83
2023/03/04 12:21:06;;;;;;;48.43;32.27;;;8.40;99.90;;;;;;5037488;28;20174;-82
2023/03/04 12:23:57;;;;;;;49.87;31.83;;;8.90;99.90;;;;;;5037026;28;20170;-82
2023/03/04 12:26:35;;;;;;;48.57;32.90;;;8.70;99.90;;;;;;5035623;28;20170;-82
2023/03/04 12:29:12;;;;;;;46.27;29.73;;;8.40;99.90;;;;;;5035174;28;20198;-82
2023/03/04 12:31:41;;;;;;;48.37;31.87;;;8.90;99.90;;;;;;5035204;28;20220;-83
2023/03/04 12:34:13;;;;;;;45.20;30.67;;;9.50;99.90;;;;;;5035306;28;20178;-82
2023/03/04 12:37:16;;;;;;;42.23;28.70;;;10.30;99.90;;;;;;5037282;28;20196;-85
2023/03/04 12:40:19;;;;;;;41.10;27.60;;;10.40;99.90;;;;;;5041612;28;20182;-83
2023/03/04 12:42:59;;;;;;;39.87;27.07;;;9.80;99.90;;;;;;5039234;28;20273;-83
2023/03/04 12:46:07;;;;;;;35.73;25.60;;;9.40;99.90;;;;;;5039784;28;20224;-83
2023/03/04 12:49:02;;;;;;;38.87;26.33;;;9.70;99.90;;;;;;5029148;28;20212;-84
2023/03/04 12:51:46;;;;;;;36.13;25.10;;;10.30;99.90;;;;;;5038961;28;20378;-83
2023/03/04 12:54:24;;;;;;;35.00;25.73;;;11.20;99.90;;;;;;5042110;28;20166;-85
2023/03/04 12:56:52;;;;;;;38.57;25.77;;;10.50;99.90;;;;;;5041286;28;20184;-86
2023/03/04 12:59:21;;;;;;;32.70;24.77;;;10.00;99.90;;;;;;5043552;28;20170;-86
2023/03/04 13:01:52;;;;;;;33.57;23.67;;;11.00;99.90;;;;;;5042653;28;20182;-86
2023/03/04 13:04:36;;;;;;;34.30;23.10;;;11.70;99.90;;;;;;5040984;28;20178;-86
2023/03/04 13:07:02;;;;;;;37.87;25.37;;;11.80;99.90;;;;;;5042230;28;20274;-84
2023/03/04 13:09:33;;;;;;;33.20;24.70;;;12.10;99.90;;;;;;5041807;28;20209;-86
2023/03/04 13:12:15;;;;;;;33.07;24.87;;;12.40;99.90;;;;;;5040313;28;20197;-84
2023/03/04 13:15:07;;;;;;;34.17;24.87;;;12.70;99.90;;;;;;5039468;28;20159;-84
2023/03/04 13:17:51;;;;;;;34.70;24.63;;;12.90;96.90;;;;;;5038120;28;20245;-83
2023/03/04 13:20:29;;;;;;;35.67;23.53;;;11.70;98.90;;;;;;5037798;28;20521;-81
2023/03/04 13:22:58;;;;;;;40.03;28.27;;;10.30;99.90;;;;;;5038405;28;20562;-83
2023/03/04 13:25:31;;;;;;;43.77;29.40;;;9.70;99.90;;;;;;5037816;28;20601;-83
2023/03/04 13:28:12;;;;;;;35.73;27.83;;;8.80;99.90;;;;;;5037232;28;20214;-83
2023/03/04 13:30:52;;;;;;;37.77;26.80;;;8.30;99.90;;;;;;5037525;28;20210;-83
2023/03/04 13:33:20;;;;;;;41.07;28.57;;;8.00;99.90;;;;;;5038826;28;20682;-83
2023/03/04 13:35:49;;;;;;;39.97;26.37;;;7.90;99.90;;;;;;5038309;28;20181;-83
2023/03/04 13:38:27;;;;;;;36.80;25.57;;;8.00;99.90;;;;;;5037100;28;20234;-83
2023/03/04 13:41:12;;;;;;;35.07;25.43;;;8.10;99.90;;;;;;5036797;28;20292;-83
2023/03/04 13:43:42;;;;;;;43.97;28.73;;;9.00;99.90;;;;;;5038176;28;20206;-83
2023/03/04 13:46:19;;;;;;;36.23;26.17;;;8.80;99.90;;;;;;5037649;28;20178;-85
2023/03/04 13:48:51;;;;;;;46.97;30.03;;;8.90;99.90;;;;;;5036261;28;20288;-85
2023/03/04 13:51:45;;;;;;;38.20;27.43;;;8.80;99.90;;;;;;5038084;28;20206;-85
2023/03/04 13:54:18;;;;;;;42.30;26.20;;;9.60;99.90;;;;;;5034657;28;20189;-82
2023/03/04 13:56:46;;;;;;;36.27;23.27;;;9.20;99.90;;;;;;5034555;28;20223;-83
2023/03/04 13:59:37;;;;;;;44.20;28.20;;;8.70;99.90;;;;;;5036711;28;20224;-84
2023/03/04 14:02:14;;;;;;;37.43;26.77;;;10.10;99.90;;;;;;5041308;28;20250;-82
2023/03/04 14:04:57;;;;;;;37.10;26.57;;;11.30;99.90;;;;;;5042121;28;20680;-90
2023/03/04 14:07:35;;;;;;;36.33;24.33;;;12.20;99.90;;;;;;5041662;28;20202;-85
2023/03/04 14:10:10;;;;;;;33.33;23.60;;;12.60;99.20;;;;;;5040851;28;20277;-84
2023/03/04 14:12:57;;;;;;;35.77;25.87;;;12.40;99.60;;;;;;5040742;28;20202;-84
2023/03/04 14:15:30;;;;;;;38.30;22.30;;;11.50;99.90;;;;;;5040999;28;20174;-83
2023/03/04 14:18:02;;;;;;;37.10;24.83;;;10.30;99.90;;;;;;5038569;28;20232;-84
2023/03/04 14:20:36;;;;;;;40.83;26.73;;;9.40;99.90;;;;;;5039686;28;20272;-84
2023/03/04 14:23:30;;;;;;;36.37;23.73;;;8.70;99.90;;;;;;5037205;28;20204;-83
2023/03/04 14:26:14;;;;;;;36.43;26.50;;;8.30;99.90;;;;;;5037950;28;20173;-83
2023/03/04 14:28:48;;;;;;;38.70;24.67;;;8.10;99.90;;;;;;5036558;28;20248;-82
2023/03/04 14:31:18;;;;;;;35.43;23.80;;;8.00;99.90;;;;;;5038009;28;20201;-83
2023/03/04 14:33:51;;;;;;;35.63;24.33;;;8.00;99.90;;;;;;5036525;28;20592;-82
2023/03/04 14:36:22;;;;;;;39.20;25.10;;;8.00;99.90;;;;;;5037748;28;20190;-82
2023/03/04 14:38:57;;;;;;;35.47;22.87;;;8.10;99.90;;;;;;5037488;28;20194;-82
2023/03/04 14:41:38;;;;;;;35.63;23.27;;;8.20;99.90;;;;;;5036493;28;20265;-82
2023/03/04 14:44:23;;;;;;;33.07;22.37;;;8.40;99.90;;;;;;5038681;28;20174;-85
2023/03/04 14:46:54;;;;;;;31.67;21.20;;;8.50;99.90;;;;;;5042365;28;20174;-80
2023/03/04 14:49:20;;;;;;;31.60;22.03;;;8.60;99.90;;;;;;5039969;28;20167;-82
2023/03/04 14:51:51;;;;;;;34.03;21.83;;;8.50;99.90;;;;;;5038644;28;20675;-82
2023/03/04 14:54:37;;;;;;;40.30;23.10;;;8.30;99.90;;;;;;5037497;28;20228;-81
2023/03/04 14:57:21;;;;;;;33.70;21.50;;;8.10;99.90;;;;;;5041624;28;20197;-82
2023/03/04 14:59:46;;;;;;;35.00;22.80;;;7.70;99.90;;;;;;5037378;28;20262;-81
2023/03/04 15:02:20;;;;;;;36.30;22.47;;;7.50;99.90;;;;;;5042786;28;20174;-82
2023/03/04 15:04:47;;;;;;;34.93;22.77;;;7.40;99.90;;;;;;5036267;28;20648;-82
2023/03/04 15:07:20;;;;;;;41.20;24.70;;;7.30;99.90;;;;;;5037724;28;20197;-82
2023/03/04 15:09:52;;;;;;;35.83;23.77;;;7.10;99.90;;;;;;5036061;28;20544;-82
2023/03/04 15:12:30;;;;;;;35.33;22.03;;;6.80;99.90;;;;;;5036892;28;20213;-83
2023/03/04 15:15:00;;;;;;;36.33;23.20;;;6.70;99.90;;;;;;5038626;28;20233;-83
2023/03/04 15:17:37;;;;;;;34.83;22.97;;;6.70;99.90;;;;;;5036514;28;20285;-82
2023/03/04 15:20:09;;;;;;;35.27;22.83;;;6.50;99.90;;;;;;5036210;28;20171;-81
2023/03/04 15:22:47;;;;;;;34.17;21.87;;;6.50;99.90;;;;;;5035696;28;20172;-81
2023/03/04 15:25:14;;;;;;;36.50;22.30;;;6.40;99.90;;;;;;5036959;28;20267;-81
2023/03/04 15:27:41;;;;;;;32.47;20.90;;;6.30;99.90;;;;;;5036714;28;20250;-82
2023/03/04 15:30:14;;;;;;;34.10;20.37;;;6.20;99.90;;;;;;5037743;28;20337;-81
2023/03/04 15:32:40;;;;;;;29.40;19.03;;;6.10;99.90;;;;;;5037679;28;20202;-82
2023/03/04 15:35:08;;;;;;;35.33;21.10;;;6.00;99.90;;;;;;5036573;28;20665;-82
2023/03/04 15:37:34;;;;;;;29.23;18.73;;;5.90;99.90;;;;;;5035868;28;20688;-81
2023/03/04 15:40:00;;;;;;;31.97;19.13;;;5.80;99.90;;;;;;5036032;28;20171;-82
2023/03/04 15:42:27;;;;;;;29.90;20.43;;;5.80;99.90;;;;;;5036932;28;20179;-81
2023/03/04 15:44:53;;;;;;;31.23;19.63;;;5.60;99.90;;;;;;5035932;28;20250;-82
2023/03/04 15:47:19;;;;;;;30.67;19.40;;;5.40;99.90;;;;;;5037001;28;20222;-82
2023/03/04 15:49:47;;;;;;;36.70;20.17;;;5.10;99.90;;;;;;5035840;28;20178;-81
2023/03/04 15:52:18;;;;;;;34.17;19.67;;;4.90;99.90;;;;;;5035821;28;20220;-82
2023/03/04 15:54:44;;;;;;;31.57;19.60;;;4.80;99.90;;;;;;5038808;28;20165;-82
2023/03/04 15:57:21;;;;;;;31.63;20.73;;;4.80;99.90;;;;;;5038365;28;20560;-84
2023/03/04 15:59:48;;;;;;;32.77;20.47;;;4.70;99.90;;;;;;5039647;28;20174;-84
2023/03/04 16:02:28;;;;;;;32.10;21.13;;;4.50;99.90;;;;;;5037431;28;20180;-84
2023/03/04 16:04:53;;;;;;;29.80;19.53;;;4.40;99.90;;;;;;5037965;28;20181;-84
2023/03/04 16:07:23;;;;;;;34.53;21.37;;;4.40;99.90;;;;;;5038088;28;20449;-83
2023/03/04 16:09:57;;;;;;;36.00;21.80;;;4.20;99.90;;;;;;5039045;28;20183;-84
2023/03/04 16:12:25;;;;;;;32.87;19.50;;;3.90;99.90;;;;;;5038474;28;20290;-84
2023/03/04 16:14:51;;;;;;;34.60;20.30;;;3.70;99.90;;;;;;5042608;28;20206;-84
2023/03/04 16:17:17;;;;;;;35.67;22.53;;;3.60;99.90;;;;;;5041966;28;20205;-84
2023/03/04 16:19:43;;;;;;;31.73;20.47;;;3.40;99.90;;;;;;5042092;28;20233;-82
2023/03/04 16:22:17;;;;;;;36.67;21.87;;;3.30;99.90;;;;;;5042147;28;20184;-82
2023/03/04 16:24:43;;;;;;;33.30;21.43;;;3.20;99.90;;;;;;5044653;28;20271;-81
2023/03/04 16:27:16;;;;;;;34.57;19.83;;;3.00;99.90;;;;;;5054693;28;20227;-81
2023/03/04 16:29:42;;;;;;;38.83;21.63;;;2.90;99.90;;;;;;5052550;28;20412;-81
2023/03/04 16:32:09;;;;;;;39.03;21.90;;;2.80;99.90;;;;;;5038835;28;20965;-82
2023/03/04 16:34:35;;;;;;;35.60;22.23;;;2.80;99.90;;;;;;5037459;28;20425;-81
2023/03/04 16:37:06;;;;;;;35.67;21.50;;;2.70;99.90;;;;;;5037081;28;20432;-81
